createdAt,value
2017-08-31T00:00:11.870Z,6.4
2017-08-31T00:01:14.262Z,6.4
2017-08-31T00:02:16.656Z,6.3
2017-08-31T00:03:19.046Z,6.4
2017-08-31T00:04:21.436Z,6.4
2017-08-31T00:05:23.826Z,6.4
2017-08-31T00:06:26.221Z,6.4
2017-08-31T00:07:28.608Z,6.5
2017-08-31T00:08:31.000Z,6.4
2017-08-31T00:09:33.736Z,6.4
2017-08-31T00:10:36.465Z,6.4
2017-08-31T00:11:38.857Z,6.4
2017-08-31T00:12:41.251Z,6.4
2017-08-31T00:13:43.642Z,6.4
2017-08-31T00:14:46.036Z,6.4
2017-08-31T00:15:48.427Z,6.4
2017-08-31T00:16:50.819Z,6.4
2017-08-31T00:17:53.552Z,6.4
2017-08-31T00:18:55.944Z,6.4
2017-08-31T00:19:58.337Z,6.4
2017-08-31T00:21:00.730Z,6.5
2017-08-31T00:22:03.121Z,6.4
2017-08-31T00:23:05.527Z,6.4
2017-08-31T00:24:07.942Z,6.5
2017-08-31T00:25:10.349Z,6.4
2017-08-31T00:26:12.766Z,6.4
2017-08-31T00:27:15.182Z,6.4
2017-08-31T00:28:17.588Z,6.4
2017-08-31T00:29:19.997Z,6.4
2017-08-31T00:30:22.407Z,6.4
2017-08-31T00:31:24.826Z,6.4
2017-08-31T00:32:27.233Z,6.4
2017-08-31T00:33:29.647Z,6.4
2017-08-31T00:34:32.053Z,6.4
2017-08-31T00:35:34.474Z,6.4
2017-08-31T00:36:36.885Z,6.4
2017-08-31T00:37:39.296Z,6.4
2017-08-31T00:38:41.714Z,6.4
2017-08-31T00:39:44.123Z,6.4
2017-08-31T00:40:46.542Z,6.4
2017-08-31T00:41:48.948Z,6.4
2017-08-31T00:42:51.359Z,6.4
2017-08-31T00:43:53.777Z,6.4
2017-08-31T00:44:56.189Z,6.4
2017-08-31T00:45:58.600Z,6.4
2017-08-31T00:47:01.015Z,6.4
2017-08-31T00:48:03.434Z,6.4
2017-08-31T00:49:05.846Z,6.4
2017-08-31T00:50:08.258Z,6.4
2017-08-31T00:51:10.680Z,6.4
2017-08-31T00:52:13.437Z,6.4
2017-08-31T00:53:15.840Z,6.4
2017-08-31T00:54:18.253Z,6.4
2017-08-31T00:55:20.667Z,6.4
2017-08-31T00:56:23.074Z,6.4
2017-08-31T00:57:25.490Z,6.4
2017-08-31T00:58:27.897Z,6.4
2017-08-31T00:59:30.304Z,6.5
2017-08-31T01:00:32.730Z,6.4
2017-08-31T01:01:35.134Z,6.4
2017-08-31T01:02:37.538Z,6.4
2017-08-31T01:03:39.947Z,6.4
2017-08-31T01:04:42.356Z,6.4
2017-08-31T01:05:44.768Z,6.4
2017-08-31T01:06:47.182Z,6.4
2017-08-31T01:07:49.593Z,6.4
2017-08-31T01:08:52.000Z,6.4
2017-08-31T01:09:54.421Z,6.4
2017-08-31T01:10:56.826Z,6.4
2017-08-31T01:11:59.237Z,6.5
2017-08-31T01:13:01.656Z,6.4
2017-08-31T01:14:04.066Z,6.4
2017-08-31T01:15:06.480Z,6.4
2017-08-31T01:16:08.896Z,6.4
2017-08-31T01:17:11.641Z,6.4
2017-08-31T01:18:14.054Z,6.4
2017-08-31T01:19:16.461Z,6.4
2017-08-31T01:20:18.873Z,6.4
2017-08-31T01:21:21.283Z,6.4
2017-08-31T01:22:23.693Z,6.4
2017-08-31T01:23:26.102Z,6.4
2017-08-31T01:24:28.515Z,6.4
2017-08-31T01:25:30.916Z,6.4
2017-08-31T01:26:33.330Z,6.4
2017-08-31T01:27:35.739Z,6.4
2017-08-31T01:28:38.149Z,6.4
2017-08-31T01:29:40.563Z,6.4
2017-08-31T01:30:42.970Z,6.4
2017-08-31T01:31:45.386Z,6.5
2017-08-31T01:32:47.808Z,6.4
2017-08-31T01:33:50.212Z,6.4
2017-08-31T01:34:52.637Z,6.4
2017-08-31T01:35:55.038Z,6.4
2017-08-31T01:36:57.454Z,6.3
2017-08-31T01:38:00.208Z,6.4
2017-08-31T01:39:02.621Z,6.4
2017-08-31T01:40:05.032Z,6.4
2017-08-31T01:41:07.775Z,6.4
2017-08-31T01:42:10.183Z,6.4
2017-08-31T01:43:12.602Z,6.4
2017-08-31T01:44:15.019Z,6.4
2017-08-31T01:45:17.422Z,6.4
2017-08-31T01:46:19.836Z,6.4
2017-08-31T01:47:22.253Z,6.4
2017-08-31T01:48:24.662Z,6.4
2017-08-31T01:49:27.080Z,6.4
2017-08-31T01:50:29.489Z,6.4
2017-08-31T01:51:31.904Z,6.4
2017-08-31T01:52:34.322Z,6.4
2017-08-31T01:53:36.727Z,6.4
2017-08-31T01:54:39.146Z,6.5
2017-08-31T01:55:41.917Z,6.4
2017-08-31T01:56:44.333Z,6.5
2017-08-31T01:57:46.747Z,6.5
2017-08-31T01:58:49.167Z,6.5
2017-08-31T01:59:51.573Z,6.5
2017-08-31T02:00:53.990Z,6.5
2017-08-31T02:01:56.398Z,6.4
2017-08-31T02:02:58.805Z,6.4
2017-08-31T02:04:01.216Z,6.4
2017-08-31T02:05:03.623Z,6.3
2017-08-31T02:06:06.031Z,6.4
2017-08-31T02:07:08.444Z,6.4
2017-08-31T02:08:10.852Z,6.5
2017-08-31T02:09:13.263Z,6.5
2017-08-31T02:10:15.681Z,6.4
2017-08-31T02:11:18.097Z,6.4
2017-08-31T02:12:20.514Z,6.4
2017-08-31T02:13:22.927Z,6.5
2017-08-31T02:14:25.705Z,6.5
2017-08-31T02:15:28.114Z,6.5
2017-08-31T02:16:30.538Z,6.5
2017-08-31T02:17:32.945Z,6.5
2017-08-31T02:18:35.689Z,6.5
2017-08-31T02:19:38.102Z,6.5
2017-08-31T02:20:40.525Z,6.5
2017-08-31T02:21:42.931Z,6.5
2017-08-31T02:22:45.332Z,6.5
2017-08-31T02:23:47.758Z,6.5
2017-08-31T02:24:50.166Z,6.5
2017-08-31T02:25:52.571Z,6.5
2017-08-31T02:26:54.987Z,6.6
2017-08-31T02:27:57.389Z,6.6
2017-08-31T02:28:59.802Z,6.5
2017-08-31T02:30:02.222Z,6.5
2017-08-31T02:31:04.623Z,6.5
2017-08-31T02:32:07.032Z,6.6
2017-08-31T02:33:09.466Z,6.5
2017-08-31T02:34:12.197Z,6.5
2017-08-31T02:35:14.615Z,6.6
2017-08-31T02:36:17.022Z,6.6
2017-08-31T02:37:19.773Z,6.5
2017-08-31T02:38:22.190Z,6.6
2017-08-31T02:39:24.604Z,6.6
2017-08-31T02:40:27.014Z,6.6
2017-08-31T02:41:29.438Z,6.5
2017-08-31T02:42:32.181Z,6.6
2017-08-31T02:43:34.589Z,6.6
2017-08-31T02:44:37.005Z,6.5
2017-08-31T02:45:39.417Z,6.6
2017-08-31T02:46:41.825Z,6.5
2017-08-31T02:47:44.233Z,6.6
2017-08-31T02:48:46.650Z,6.6
2017-08-31T02:49:49.055Z,6.7
2017-08-31T02:50:51.473Z,6.6
2017-08-31T02:51:53.884Z,6.6
2017-08-31T02:52:56.301Z,6.6
2017-08-31T02:53:58.706Z,6.7
2017-08-31T02:55:01.124Z,6.7
2017-08-31T02:56:03.532Z,6.7
2017-08-31T02:57:05.948Z,6.7
2017-08-31T02:58:08.354Z,6.6
2017-08-31T02:59:10.762Z,6.7
2017-08-31T03:00:13.171Z,6.6
2017-08-31T03:01:15.590Z,6.6
2017-08-31T03:02:18.008Z,6.7
2017-08-31T03:03:20.422Z,6.7
2017-08-31T03:04:22.836Z,6.6
2017-08-31T03:05:25.261Z,6.6
2017-08-31T03:06:27.668Z,6.5
2017-08-31T03:07:30.414Z,6.6
2017-08-31T03:08:32.829Z,6.8
2017-08-31T03:09:35.235Z,6.8
2017-08-31T03:10:37.651Z,6.7
2017-08-31T03:11:40.059Z,6.9
2017-08-31T03:12:42.477Z,6.8
2017-08-31T03:13:44.885Z,6.8
2017-08-31T03:14:47.638Z,6.8
2017-08-31T03:15:50.049Z,6.7
2017-08-31T03:16:52.467Z,6.8
2017-08-31T03:17:54.873Z,6.8
2017-08-31T03:18:57.284Z,6.8
2017-08-31T03:19:59.701Z,6.8
2017-08-31T03:21:02.106Z,6.7
2017-08-31T03:22:04.526Z,6.7
2017-08-31T03:23:07.288Z,6.8
2017-08-31T03:24:09.695Z,6.8
2017-08-31T03:25:12.108Z,6.8
2017-08-31T03:26:14.514Z,6.8
2017-08-31T03:27:16.922Z,6.8
2017-08-31T03:28:19.339Z,6.7
2017-08-31T03:29:21.742Z,6.8
2017-08-31T03:30:24.150Z,6.7
2017-08-31T03:31:26.566Z,6.8
2017-08-31T03:32:28.979Z,6.7
2017-08-31T03:33:31.388Z,6.8
2017-08-31T03:34:33.803Z,6.7
2017-08-31T03:35:36.215Z,6.7
2017-08-31T03:36:38.633Z,6.7
2017-08-31T03:37:41.044Z,6.8
2017-08-31T03:38:43.457Z,6.7
2017-08-31T03:39:45.870Z,6.7
2017-08-31T03:40:48.279Z,6.7
2017-08-31T03:41:50.686Z,6.8
2017-08-31T03:42:53.103Z,6.8
2017-08-31T03:43:55.511Z,6.8
2017-08-31T03:44:57.920Z,6.8
2017-08-31T03:46:00.330Z,6.8
2017-08-31T03:47:02.739Z,6.7
2017-08-31T03:48:05.154Z,6.7
2017-08-31T03:49:07.564Z,6.8
2017-08-31T03:50:09.970Z,6.7
2017-08-31T03:51:12.385Z,6.7
2017-08-31T03:52:14.796Z,6.7
2017-08-31T03:53:17.205Z,6.7
2017-08-31T03:54:19.625Z,6.8
2017-08-31T03:55:22.034Z,6.7
2017-08-31T03:56:24.444Z,6.8
2017-08-31T03:57:26.861Z,6.7
2017-08-31T03:58:29.270Z,6.7
2017-08-31T03:59:31.681Z,6.8
2017-08-31T04:00:34.097Z,6.8
2017-08-31T04:01:36.505Z,6.7
2017-08-31T04:02:39.258Z,6.8
2017-08-31T04:03:41.669Z,6.8
2017-08-31T04:04:44.071Z,6.8
2017-08-31T04:05:46.495Z,6.9
2017-08-31T04:06:48.899Z,6.8
2017-08-31T04:07:51.304Z,6.8
2017-08-31T04:08:53.717Z,6.8
2017-08-31T04:09:56.133Z,6.8
2017-08-31T04:10:58.541Z,6.8
2017-08-31T04:12:00.954Z,6.8
2017-08-31T04:13:03.360Z,6.8
2017-08-31T04:14:05.763Z,6.8
2017-08-31T04:15:08.182Z,6.9
2017-08-31T04:16:10.592Z,6.8
2017-08-31T04:17:13.002Z,6.8
2017-08-31T04:18:15.419Z,6.9
2017-08-31T04:19:18.160Z,6.8
2017-08-31T04:20:20.576Z,6.9
2017-08-31T04:21:22.989Z,6.8
2017-08-31T04:22:25.402Z,6.8
2017-08-31T04:23:27.817Z,6.9
2017-08-31T04:24:30.221Z,6.8
2017-08-31T04:25:32.634Z,6.8
2017-08-31T04:26:35.057Z,6.8
2017-08-31T04:27:37.468Z,6.8
2017-08-31T04:28:39.879Z,6.8
2017-08-31T04:29:42.283Z,6.7
2017-08-31T04:30:44.700Z,6.8
2017-08-31T04:31:47.111Z,6.8
2017-08-31T04:32:49.527Z,6.7
2017-08-31T04:33:51.929Z,6.8
2017-08-31T04:34:54.346Z,6.8
2017-08-31T04:35:56.758Z,6.8
2017-08-31T04:36:59.179Z,6.8
2017-08-31T04:38:01.593Z,6.8
2017-08-31T04:39:03.993Z,6.8
2017-08-31T04:40:06.414Z,6.7
2017-08-31T04:41:08.826Z,6.8
2017-08-31T04:42:11.239Z,6.9
2017-08-31T04:43:13.648Z,6.8
2017-08-31T04:44:16.062Z,6.8
2017-08-31T04:45:18.812Z,6.9
2017-08-31T04:46:21.231Z,6.8
2017-08-31T04:47:23.647Z,6.8
2017-08-31T04:48:26.059Z,6.8
2017-08-31T04:49:28.471Z,6.8
2017-08-31T04:50:30.884Z,6.7
2017-08-31T04:51:33.300Z,6.7
2017-08-31T04:52:35.717Z,6.6
2017-08-31T04:53:38.134Z,6.6
2017-08-31T04:54:40.541Z,6.6
2017-08-31T04:55:43.295Z,6.7
2017-08-31T04:56:45.701Z,6.7
2017-08-31T04:57:48.116Z,6.7
2017-08-31T04:58:50.524Z,6.7
2017-08-31T04:59:53.020Z,6.6
2017-08-31T05:00:55.434Z,6.7
2017-08-31T05:01:57.861Z,6.7
2017-08-31T05:03:00.263Z,6.6
2017-08-31T05:04:02.711Z,6.7
2017-08-31T05:05:05.127Z,6.7
2017-08-31T05:06:07.883Z,6.7
2017-08-31T05:07:10.653Z,6.6
2017-08-31T05:08:13.054Z,6.7
2017-08-31T05:09:15.467Z,6.6
2017-08-31T05:10:17.885Z,6.7
2017-08-31T05:11:20.294Z,6.7
2017-08-31T05:12:22.703Z,6.6
2017-08-31T05:13:25.127Z,6.7
2017-08-31T05:14:27.538Z,6.6
2017-08-31T05:15:29.951Z,6.6
2017-08-31T05:16:32.364Z,6.7
2017-08-31T05:17:34.785Z,6.6
2017-08-31T05:18:37.201Z,6.7
2017-08-31T05:19:39.607Z,6.6
2017-08-31T05:20:42.324Z,6.7
2017-08-31T05:21:44.742Z,6.7
2017-08-31T05:22:47.151Z,6.7
2017-08-31T05:23:49.572Z,6.6
2017-08-31T05:24:52.318Z,6.6
2017-08-31T05:25:54.733Z,6.6
2017-08-31T05:26:57.158Z,6.6
2017-08-31T05:27:59.921Z,6.6
2017-08-31T05:29:02.342Z,6.7
2017-08-31T05:30:04.762Z,6.7
2017-08-31T05:31:07.171Z,6.6
2017-08-31T05:32:09.582Z,6.6
2017-08-31T05:33:11.998Z,6.6
2017-08-31T05:34:14.412Z,6.6
2017-08-31T05:35:16.819Z,6.6
2017-08-31T05:36:19.238Z,6.6
2017-08-31T05:37:21.645Z,6.6
2017-08-31T05:38:24.056Z,6.5
2017-08-31T05:39:26.470Z,6.7
2017-08-31T05:40:28.880Z,6.6
2017-08-31T05:41:31.298Z,6.6
2017-08-31T05:42:33.714Z,6.7
2017-08-31T05:43:36.809Z,6.6
2017-08-31T05:44:39.231Z,6.7
2017-08-31T05:45:41.638Z,6.5
2017-08-31T05:46:44.384Z,6.6
2017-08-31T05:47:46.794Z,6.6
2017-08-31T05:48:49.252Z,6.6
2017-08-31T05:49:51.663Z,6.6
2017-08-31T05:50:54.086Z,6.6
2017-08-31T05:51:56.491Z,6.6
2017-08-31T05:52:58.894Z,6.6
2017-08-31T05:54:01.322Z,6.7
2017-08-31T05:55:04.084Z,6.6
2017-08-31T05:56:06.560Z,6.6
2017-08-31T05:57:08.982Z,6.6
2017-08-31T05:58:11.386Z,6.7
2017-08-31T05:59:13.803Z,6.6
2017-08-31T06:00:16.492Z,6.6
2017-08-31T06:01:18.899Z,6.6
2017-08-31T06:02:21.321Z,6.6
2017-08-31T06:03:23.728Z,6.6
2017-08-31T06:04:26.143Z,6.6
2017-08-31T06:05:28.556Z,6.6
2017-08-31T06:06:30.965Z,6.6
2017-08-31T06:07:33.381Z,6.6
2017-08-31T06:08:35.798Z,6.6
2017-08-31T06:09:38.205Z,6.6
2017-08-31T06:10:40.624Z,6.6
2017-08-31T06:11:43.036Z,6.6
2017-08-31T06:12:45.443Z,6.6
2017-08-31T06:13:47.860Z,6.6
2017-08-31T06:14:50.268Z,6.5
2017-08-31T06:15:52.688Z,6.6
2017-08-31T06:16:55.095Z,6.5
2017-08-31T06:17:57.508Z,6.5
2017-08-31T06:19:00.268Z,6.5
2017-08-31T06:20:02.674Z,6.5
2017-08-31T06:21:05.093Z,6.5
2017-08-31T06:22:07.505Z,6.5
2017-08-31T06:23:09.919Z,6.6
2017-08-31T06:24:12.331Z,6.5
2017-08-31T06:25:14.749Z,6.5
2017-08-31T06:26:17.155Z,6.5
2017-08-31T06:27:19.600Z,6.5
2017-08-31T06:28:21.983Z,6.5
2017-08-31T06:29:24.391Z,6.5
2017-08-31T06:30:26.804Z,6.5
2017-08-31T06:31:29.210Z,6.5
2017-08-31T06:32:31.619Z,6.5
2017-08-31T06:33:34.042Z,6.5
2017-08-31T06:34:36.454Z,6.5
2017-08-31T06:35:38.858Z,6.5
2017-08-31T06:36:41.279Z,6.5
2017-08-31T06:37:43.697Z,6.5
2017-08-31T06:38:46.449Z,6.5
2017-08-31T06:39:48.867Z,6.5
2017-08-31T06:40:51.274Z,6.5
2017-08-31T06:41:53.682Z,6.5
2017-08-31T06:42:56.106Z,6.4
2017-08-31T06:43:58.517Z,6.5
2017-08-31T06:45:00.921Z,6.5
2017-08-31T06:46:03.339Z,6.4
2017-08-31T06:47:05.756Z,6.4
2017-08-31T06:48:08.164Z,6.4
2017-08-31T06:49:10.574Z,6.5
2017-08-31T06:50:12.989Z,6.4
2017-08-31T06:51:15.395Z,6.4
2017-08-31T06:52:17.811Z,6.4
2017-08-31T06:53:20.226Z,6.4
2017-08-31T06:54:22.638Z,6.3
2017-08-31T06:55:25.051Z,6.4
2017-08-31T06:56:27.469Z,6.4
2017-08-31T06:57:30.220Z,6.4
2017-08-31T06:58:32.626Z,6.3
2017-08-31T06:59:35.039Z,6.3
2017-08-31T07:00:37.789Z,6.3
2017-08-31T07:01:40.213Z,6.3
2017-08-31T07:02:42.613Z,6.3
2017-08-31T07:03:45.024Z,6.3
2017-08-31T07:04:47.439Z,6.3
2017-08-31T07:05:49.854Z,6.3
2017-08-31T07:06:52.263Z,6.4
2017-08-31T07:07:54.682Z,6.3
2017-08-31T07:08:57.085Z,6.3
2017-08-31T07:09:59.501Z,6.4
2017-08-31T07:11:01.918Z,6.3
2017-08-31T07:12:04.330Z,6.3
2017-08-31T07:13:06.744Z,6.3
2017-08-31T07:14:09.155Z,6.3
2017-08-31T07:15:11.571Z,6.3
2017-08-31T07:16:13.979Z,6.3
2017-08-31T07:17:16.395Z,6.3
2017-08-31T07:18:18.810Z,6.3
2017-08-31T07:19:21.222Z,6.3
2017-08-31T07:20:23.969Z,6.3
2017-08-31T07:21:26.384Z,6.3
2017-08-31T07:22:28.791Z,6.3
2017-08-31T07:23:31.210Z,6.3
2017-08-31T07:24:33.621Z,6.3
2017-08-31T07:25:36.029Z,6.3
2017-08-31T07:26:38.437Z,6.3
2017-08-31T07:27:40.854Z,6.3
2017-08-31T07:28:43.269Z,6.3
2017-08-31T07:29:46.023Z,6.3
2017-08-31T07:30:48.437Z,6.3
2017-08-31T07:31:50.846Z,6.3
2017-08-31T07:32:53.267Z,6.3
2017-08-31T07:33:56.018Z,6.3
2017-08-31T07:34:58.428Z,6.3
2017-08-31T07:36:00.840Z,6.3
2017-08-31T07:37:03.262Z,6.3
2017-08-31T07:38:05.672Z,6.3
2017-08-31T07:39:08.090Z,6.3
2017-08-31T07:40:10.498Z,6.3
2017-08-31T07:41:13.279Z,6.3
2017-08-31T07:42:15.697Z,6.3
2017-08-31T07:43:18.111Z,6.3
2017-08-31T07:44:20.514Z,6.3
2017-08-31T07:45:23.266Z,6.3
2017-08-31T07:46:25.683Z,6.3
2017-08-31T07:47:28.095Z,6.3
2017-08-31T07:48:30.505Z,6.3
2017-08-31T07:49:33.262Z,6.3
2017-08-31T07:50:35.673Z,6.3
2017-08-31T07:51:38.085Z,6.3
2017-08-31T07:52:40.500Z,6.3
2017-08-31T07:53:42.909Z,6.3
2017-08-31T07:54:45.329Z,6.3
2017-08-31T07:55:47.745Z,6.3
2017-08-31T07:56:50.154Z,6.3
2017-08-31T07:57:52.570Z,6.3
2017-08-31T07:58:54.978Z,6.3
2017-08-31T07:59:57.386Z,6.3
2017-08-31T08:00:59.801Z,6.3
2017-08-31T08:02:02.216Z,6.3
2017-08-31T08:03:04.622Z,6.2
2017-08-31T08:04:07.074Z,6.3
2017-08-31T08:05:09.506Z,6.3
2017-08-31T08:06:11.920Z,6.3
2017-08-31T08:07:14.335Z,6.3
2017-08-31T08:08:16.750Z,6.2
2017-08-31T08:09:19.159Z,6.3
2017-08-31T08:10:21.573Z,6.3
2017-08-31T08:11:23.981Z,6.2
2017-08-31T08:12:26.732Z,6.3
2017-08-31T08:13:29.148Z,6.3
2017-08-31T08:14:31.563Z,6.3
2017-08-31T08:15:33.964Z,6.2
2017-08-31T08:16:36.718Z,6.3
2017-08-31T08:17:39.136Z,6.3
2017-08-31T08:18:41.547Z,6.2
2017-08-31T08:19:43.955Z,6.2
2017-08-31T08:20:46.365Z,6.2
2017-08-31T08:21:48.772Z,6.2
2017-08-31T08:22:51.192Z,6.2
2017-08-31T08:24:38.509Z,6.2
2017-08-31T08:25:40.983Z,6.2
2017-08-31T08:26:43.453Z,6.2
2017-08-31T08:27:45.930Z,6.2
2017-08-31T08:28:48.399Z,6.2
2017-08-31T08:29:51.217Z,6.2
2017-08-31T08:30:53.684Z,6.3
2017-08-31T08:31:56.151Z,6.2
2017-08-31T08:32:58.634Z,6.2
2017-08-31T08:34:01.101Z,6.2
2017-08-31T08:35:03.574Z,6.2
2017-08-31T08:36:06.047Z,6.2
2017-08-31T08:37:08.525Z,6.2
2017-08-31T08:38:10.997Z,6.2
2017-08-31T08:39:13.473Z,6.2
2017-08-31T08:40:15.936Z,6.2
2017-08-31T08:41:18.404Z,6.2
2017-08-31T08:42:20.880Z,6.2
2017-08-31T08:43:23.345Z,6.2
2017-08-31T08:44:25.820Z,6.2
2017-08-31T08:45:28.290Z,6.2
2017-08-31T08:46:30.760Z,6.2
2017-08-31T08:47:33.223Z,6.2
2017-08-31T08:48:35.701Z,6.2
2017-08-31T08:49:38.179Z,6.2
2017-08-31T08:50:40.654Z,6.2
2017-08-31T08:51:43.464Z,6.2
2017-08-31T08:52:45.938Z,6.2
2017-08-31T08:53:48.418Z,6.2
2017-08-31T08:54:50.902Z,6.3
2017-08-31T08:55:53.372Z,6.3
2017-08-31T08:56:55.836Z,6.2
2017-08-31T08:57:58.656Z,6.3
2017-08-31T08:59:01.152Z,6.2
2017-08-31T09:00:03.980Z,6.2
2017-08-31T09:01:06.441Z,6.3
2017-08-31T09:02:08.912Z,6.3
2017-08-31T09:03:11.725Z,6.3
2017-08-31T09:04:14.200Z,6.2
2017-08-31T09:05:16.677Z,6.3
2017-08-31T09:06:19.136Z,6.3
2017-08-31T09:07:21.612Z,6.3
2017-08-31T09:08:24.090Z,6.3
2017-08-31T09:09:26.563Z,6.3
2017-08-31T09:10:29.035Z,6.3
2017-08-31T09:11:31.508Z,6.3
2017-08-31T09:12:33.975Z,6.3
2017-08-31T09:13:36.460Z,6.3
2017-08-31T09:14:39.283Z,6.3
2017-08-31T09:15:41.758Z,6.3
2017-08-31T09:16:44.236Z,6.2
2017-08-31T09:17:46.709Z,6.3
2017-08-31T09:18:49.178Z,6.3
2017-08-31T09:19:51.653Z,6.3
2017-08-31T09:20:54.480Z,6.2
2017-08-31T09:21:56.946Z,6.3
2017-08-31T09:22:59.424Z,6.3
2017-08-31T09:24:01.898Z,6.2
2017-08-31T09:25:04.370Z,6.3
2017-08-31T09:26:06.843Z,6.3
2017-08-31T09:27:09.317Z,6.3
2017-08-31T09:28:11.785Z,6.3
2017-08-31T09:29:14.271Z,6.2
2017-08-31T09:30:16.740Z,6.3
2017-08-31T09:31:19.218Z,6.3
2017-08-31T09:32:21.689Z,6.3
2017-08-31T09:33:24.498Z,6.3
2017-08-31T09:34:26.975Z,6.2
2017-08-31T09:35:29.443Z,6.2
2017-08-31T09:36:31.917Z,6.3
2017-08-31T09:37:34.388Z,6.3
2017-08-31T09:38:36.850Z,6.2
2017-08-31T09:39:39.323Z,6.3
2017-08-31T09:40:41.796Z,6.2
2017-08-31T09:41:44.271Z,6.2
2017-08-31T09:42:47.086Z,6.3
2017-08-31T09:43:49.568Z,6.3
2017-08-31T09:44:52.031Z,6.2
2017-08-31T09:45:54.510Z,6.2
2017-08-31T09:46:56.987Z,6.2
2017-08-31T09:47:59.459Z,6.2
2017-08-31T09:49:02.291Z,6.2
2017-08-31T09:50:04.759Z,6.2
2017-08-31T09:51:07.241Z,6.2
2017-08-31T09:52:09.716Z,6.2
2017-08-31T09:53:12.181Z,6.2
2017-08-31T09:54:14.650Z,6.2
2017-08-31T09:55:17.122Z,6.2
2017-08-31T09:56:19.596Z,6.2
2017-08-31T09:57:22.076Z,6.2
2017-08-31T09:58:24.546Z,6.2
2017-08-31T09:59:27.019Z,6.2
2017-08-31T10:00:29.502Z,6.2
2017-08-31T10:01:31.971Z,6.2
2017-08-31T10:02:34.448Z,6.2
2017-08-31T10:03:37.259Z,6.2
2017-08-31T10:04:39.730Z,6.2
2017-08-31T10:05:42.204Z,6.2
2017-08-31T10:06:44.683Z,6.2
2017-08-31T10:07:47.152Z,6.2
2017-08-31T10:08:49.631Z,6.2
2017-08-31T10:09:52.099Z,6.2
2017-08-31T10:10:54.579Z,6.2
2017-08-31T10:11:57.055Z,6.2
2017-08-31T10:12:59.521Z,6.2
2017-08-31T10:14:01.999Z,6.2
2017-08-31T10:15:04.462Z,6.2
2017-08-31T10:16:06.932Z,6.2
2017-08-31T10:17:09.407Z,6.2
2017-08-31T10:18:11.880Z,6.2
2017-08-31T10:19:14.347Z,6.2
2017-08-31T10:20:16.809Z,6.2
2017-08-31T10:21:19.284Z,6.2
2017-08-31T10:22:21.758Z,6.2
2017-08-31T10:23:24.234Z,6.2
2017-08-31T10:24:26.706Z,6.2
2017-08-31T10:25:29.183Z,6.2
2017-08-31T10:26:32.010Z,6.2
2017-08-31T10:27:34.485Z,6.2
2017-08-31T10:28:36.947Z,6.2
2017-08-31T10:29:39.421Z,6.2
2017-08-31T10:30:41.887Z,6.2
2017-08-31T10:31:44.355Z,6.2
2017-08-31T10:32:47.168Z,6.2
2017-08-31T10:33:49.633Z,6.2
2017-08-31T10:34:52.101Z,6.2
2017-08-31T10:35:54.576Z,6.2
2017-08-31T10:36:57.043Z,6.2
2017-08-31T10:37:59.520Z,6.2
2017-08-31T10:39:02.006Z,6.2
2017-08-31T10:40:04.476Z,6.2
2017-08-31T10:41:07.318Z,6.2
2017-08-31T10:42:09.787Z,6.2
2017-08-31T10:43:12.277Z,6.2
2017-08-31T10:44:14.748Z,6.2
2017-08-31T10:45:17.226Z,6.2
2017-08-31T10:46:19.698Z,6.2
2017-08-31T10:47:22.514Z,6.2
2017-08-31T10:48:24.989Z,6.2
2017-08-31T10:49:27.463Z,6.2
2017-08-31T10:50:29.933Z,6.2
2017-08-31T10:51:32.411Z,6.2
2017-08-31T10:52:34.885Z,6.2
2017-08-31T10:53:37.356Z,6.2
2017-08-31T10:54:39.829Z,6.2
2017-08-31T10:55:42.298Z,6.2
2017-08-31T10:56:44.763Z,6.2
2017-08-31T10:57:47.238Z,6.2
2017-08-31T10:58:49.702Z,6.2
2017-08-31T10:59:52.175Z,6.2
2017-08-31T11:00:54.652Z,6.2
2017-08-31T11:01:57.475Z,6.2
2017-08-31T11:02:59.940Z,6.2
2017-08-31T11:04:02.415Z,6.2
2017-08-31T11:05:04.888Z,6.2
2017-08-31T11:06:07.368Z,6.2
2017-08-31T11:07:09.842Z,6.2
2017-08-31T11:08:12.319Z,6.2
2017-08-31T11:09:14.779Z,6.3
2017-08-31T11:10:17.258Z,6.3
2017-08-31T11:11:19.724Z,6.2
2017-08-31T11:12:22.191Z,6.2
2017-08-31T11:13:24.667Z,6.2
2017-08-31T11:14:27.143Z,6.2
2017-08-31T11:15:29.610Z,6.2
2017-08-31T11:16:32.071Z,6.3
2017-08-31T11:17:34.553Z,6.2
2017-08-31T11:18:37.364Z,6.2
2017-08-31T11:19:39.834Z,6.2
2017-08-31T11:20:42.310Z,6.2
2017-08-31T11:21:44.778Z,6.2
2017-08-31T11:22:47.247Z,6.2
2017-08-31T11:23:49.723Z,6.2
2017-08-31T11:24:52.191Z,6.1
2017-08-31T11:25:54.661Z,6.1
2017-08-31T11:26:57.143Z,6.2
2017-08-31T11:27:59.740Z,6.1
2017-08-31T11:29:02.890Z,6.2
2017-08-31T11:30:05.823Z,6.2
2017-08-31T11:31:08.334Z,6.2
2017-08-31T11:32:11.759Z,6.2
2017-08-31T11:33:14.337Z,6.3
2017-08-31T11:34:16.668Z,6.2
2017-08-31T11:35:19.140Z,6.2
2017-08-31T11:36:21.719Z,6.2
2017-08-31T11:37:24.159Z,6.2
2017-08-31T11:38:26.563Z,6.2
2017-08-31T11:39:29.035Z,6.2
2017-08-31T11:40:31.500Z,6.1
2017-08-31T11:41:33.968Z,6.2
2017-08-31T11:42:36.438Z,6.2
2017-08-31T11:43:38.918Z,6.2
2017-08-31T11:44:41.736Z,6.2
2017-08-31T11:45:44.542Z,6.2
2017-08-31T11:46:47.017Z,6.2
2017-08-31T11:47:49.490Z,6.2
2017-08-31T11:48:51.956Z,6.1
2017-08-31T11:49:54.423Z,6.1
2017-08-31T11:50:56.896Z,6.1
2017-08-31T11:51:59.365Z,6.1
2017-08-31T11:53:01.854Z,6.1
2017-08-31T11:54:04.668Z,6.1
2017-08-31T11:55:07.138Z,6.1
2017-08-31T11:56:09.609Z,6.1
2017-08-31T11:57:12.078Z,6.1
2017-08-31T11:58:14.558Z,6.1
2017-08-31T11:59:17.368Z,6.2
2017-08-31T12:00:19.831Z,6.2
2017-08-31T12:01:22.304Z,6.2
2017-08-31T12:02:24.775Z,6.1
2017-08-31T12:03:27.260Z,6.1
2017-08-31T12:04:29.730Z,6.1
2017-08-31T12:05:32.197Z,6.2
2017-08-31T12:06:34.681Z,6.2
2017-08-31T12:07:37.158Z,6.2
2017-08-31T12:08:39.632Z,6.1
2017-08-31T12:09:42.106Z,6.1
2017-08-31T12:10:44.667Z,6.1
2017-08-31T12:11:47.146Z,6.1
2017-08-31T12:12:49.615Z,6.1
2017-08-31T12:13:52.088Z,6.1
2017-08-31T12:14:54.556Z,6.1
2017-08-31T12:15:57.024Z,6.2
2017-08-31T12:16:59.502Z,6.2
2017-08-31T12:18:02.316Z,6.2
2017-08-31T12:19:04.793Z,6.2
2017-08-31T12:20:07.265Z,6.1
2017-08-31T12:21:09.733Z,6.1
2017-08-31T12:22:12.208Z,6.1
2017-08-31T12:23:14.678Z,6.1
2017-08-31T12:24:17.147Z,6.1
2017-08-31T12:25:19.625Z,6.1
2017-08-31T12:26:22.085Z,6.1
2017-08-31T12:27:24.556Z,6.1
2017-08-31T12:28:27.029Z,6.1
2017-08-31T12:29:29.864Z,6.1
2017-08-31T12:30:32.335Z,6.1
2017-08-31T12:31:34.806Z,6.1
2017-08-31T12:32:37.275Z,6.1
2017-08-31T12:33:39.749Z,6.1
2017-08-31T12:34:42.223Z,6.1
2017-08-31T12:35:45.035Z,6.1
2017-08-31T12:36:47.499Z,6.1
2017-08-31T12:37:49.968Z,6.1
2017-08-31T12:38:52.431Z,6.1
2017-08-31T12:39:54.899Z,6.1
2017-08-31T12:40:57.365Z,6.1
2017-08-31T12:41:59.831Z,6.1
2017-08-31T12:43:02.305Z,6.1
2017-08-31T12:44:05.120Z,6.1
2017-08-31T12:45:07.596Z,6.1
2017-08-31T12:46:10.862Z,6.1
2017-08-31T12:47:13.349Z,6.1
2017-08-31T12:48:15.825Z,6.1
2017-08-31T12:49:18.292Z,6.1
2017-08-31T12:50:20.761Z,6.1
2017-08-31T12:51:23.236Z,6.1
2017-08-31T12:52:25.702Z,6.1
2017-08-31T12:53:28.165Z,6.1
2017-08-31T12:54:30.636Z,6.1
2017-08-31T12:55:33.448Z,6.1
2017-08-31T12:56:35.914Z,6.1
2017-08-31T12:57:38.744Z,6.1
2017-08-31T12:58:41.203Z,6.1
2017-08-31T12:59:43.686Z,6.1
2017-08-31T13:00:46.163Z,6.1
2017-08-31T13:01:48.629Z,6.1
2017-08-31T13:02:51.101Z,6.1
2017-08-31T13:03:53.573Z,6.1
2017-08-31T13:04:56.033Z,6.1
2017-08-31T13:05:58.855Z,6.1
2017-08-31T13:07:01.324Z,6.1
2017-08-31T13:08:03.791Z,6.1
2017-08-31T13:09:06.262Z,6.1
2017-08-31T13:10:08.730Z,6.1
2017-08-31T13:11:11.205Z,6.1
2017-08-31T13:12:13.669Z,6.1
2017-08-31T13:13:16.134Z,6.1
2017-08-31T13:14:18.608Z,6.1
2017-08-31T13:15:21.070Z,6.1
2017-08-31T13:16:23.540Z,6.1
2017-08-31T13:17:26.019Z,6.1
2017-08-31T13:18:28.491Z,6.1
2017-08-31T13:19:30.961Z,6.1
2017-08-31T13:20:33.429Z,6.1
2017-08-31T13:21:36.245Z,6.1
2017-08-31T13:22:38.710Z,6.1
2017-08-31T13:23:41.187Z,6.1
2017-08-31T13:24:43.647Z,6.1
2017-08-31T13:25:46.109Z,6.1
2017-08-31T13:26:48.589Z,6.1
2017-08-31T13:27:51.392Z,6.1
2017-08-31T13:28:53.873Z,6.1
2017-08-31T13:29:56.347Z,6.1
2017-08-31T13:30:58.804Z,6.1
2017-08-31T13:32:01.279Z,6.1
2017-08-31T13:33:03.753Z,6.1
2017-08-31T13:34:06.222Z,6.1
2017-08-31T13:35:08.694Z,6.1
2017-08-31T13:36:11.164Z,6.1
2017-08-31T13:37:13.975Z,6.1
2017-08-31T13:38:16.447Z,6
2017-08-31T13:39:19.269Z,6.1
2017-08-31T13:40:21.730Z,6.1
2017-08-31T13:41:24.204Z,6
2017-08-31T13:42:26.660Z,6.1
2017-08-31T13:43:29.136Z,6.1
2017-08-31T13:44:31.604Z,6.1
2017-08-31T13:45:34.076Z,6
2017-08-31T13:46:36.896Z,6.1
2017-08-31T13:47:39.370Z,6.1
2017-08-31T13:48:41.833Z,6
2017-08-31T13:49:44.305Z,6.1
2017-08-31T13:50:46.768Z,6
2017-08-31T13:51:49.231Z,6.1
2017-08-31T13:52:51.698Z,6
2017-08-31T13:53:54.160Z,6.1
2017-08-31T13:54:56.695Z,6.1
2017-08-31T13:55:59.165Z,6
2017-08-31T13:57:01.626Z,6
2017-08-31T13:58:04.100Z,6
2017-08-31T13:59:06.569Z,6
2017-08-31T14:00:09.055Z,6
2017-08-31T14:01:11.527Z,6
2017-08-31T14:02:14.006Z,6
2017-08-31T14:03:16.459Z,6
2017-08-31T14:04:19.287Z,6.1
2017-08-31T14:05:21.765Z,6
2017-08-31T14:06:24.232Z,6
2017-08-31T14:07:26.705Z,6
2017-08-31T14:08:29.171Z,6
2017-08-31T14:09:31.654Z,6
2017-08-31T14:10:34.121Z,6
2017-08-31T14:11:36.594Z,6
2017-08-31T14:12:39.066Z,6
2017-08-31T14:13:41.533Z,6
2017-08-31T14:14:44.018Z,6
2017-08-31T14:15:46.499Z,6
2017-08-31T14:16:48.963Z,6
2017-08-31T14:17:51.438Z,6
2017-08-31T14:18:53.901Z,6
2017-08-31T14:19:56.384Z,6
2017-08-31T14:20:58.851Z,6
2017-08-31T14:22:01.314Z,6
2017-08-31T14:23:03.784Z,6